THY3166 LTFJ-LTCO
Flight info
| Callsign | THY3166 |
|---|---|
| Flight time | 1h 30m |
| Altitude | 37000 |
| Route | VICEN UT380 ASMAP UL333 LATGA UT363 GURBU UL615 ERZ UW94 INBAT |
| Aircraft | A321/M-SDE3FGHIRWY/LB1 |
Departure
| Time | 2026-05-07 22:36 |
|---|---|
| Airport | Istanbul Sabiha Gökçen International Airport (LTFJ) |
Arrival
| Time | 2026-05-08 00:06 |
|---|---|
| Airport | Ağrı Airport (LTCO) |
| Time | Latitude | Longitude | Altitude | Speed | Heading |
|---|---|---|---|---|---|
| 2026-05-07 22:26 | 40.89743 | 29.32397 | 303 ft | 0 kts | 63° |
| 2026-05-07 22:28 | 40.89742 | 29.32394 | 305 ft | 2 kts | 63° |
| 2026-05-07 22:29 | 40.89731 | 29.32363 | 305 ft | 4 kts | 66° |
| 2026-05-07 22:29 | 40.89721 | 29.32330 | 303 ft | 4 kts | 71° |
| 2026-05-07 22:29 | 40.89714 | 29.32296 | 303 ft | 4 kts | 88° |
| 2026-05-07 22:29 | 40.89719 | 29.32267 | 304 ft | 3 kts | 146° |
| 2026-05-07 22:30 | 40.89722 | 29.32264 | 304 ft | 1 kts | 154° |
| 2026-05-07 22:31 | 40.89713 | 29.32270 | 304 ft | 5 kts | 154° |
| 2026-05-07 22:31 | 40.89647 | 29.32312 | 304 ft | 14 kts | 154° |
| 2026-05-07 22:32 | 40.89556 | 29.32352 | 305 ft | 14 kts | 169° |
| 2026-05-07 22:32 | 40.89500 | 29.32439 | 303 ft | 15 kts | 78° |
| 2026-05-07 22:32 | 40.89546 | 29.32566 | 303 ft | 17 kts | 63° |
| 2026-05-07 22:32 | 40.89600 | 29.32714 | 301 ft | 19 kts | 64° |
| 2026-05-07 22:33 | 40.89665 | 29.32892 | 295 ft | 24 kts | 64° |
| 2026-05-07 22:33 | 40.89741 | 29.33098 | 288 ft | 25 kts | 64° |
| 2026-05-07 22:33 | 40.89814 | 29.33299 | 294 ft | 23 kts | 64° |
| 2026-05-07 22:33 | 40.89880 | 29.33481 | 299 ft | 20 kts | 64° |
| 2026-05-07 22:34 | 40.89938 | 29.33637 | 306 ft | 17 kts | 64° |
| 2026-05-07 22:34 | 40.89982 | 29.33767 | 312 ft | 13 kts | 82° |
| 2026-05-07 22:34 | 40.89927 | 29.33843 | 314 ft | 13 kts | 155° |
| 2026-05-07 22:34 | 40.89840 | 29.33887 | 311 ft | 15 kts | 184° |
| 2026-05-07 22:35 | 40.89766 | 29.33739 | 302 ft | 29 kts | 245° |
| 2026-05-07 22:35 | 40.89561 | 29.33185 | 294 ft | 105 kts | 244° |
| 2026-05-07 22:35 | 40.89143 | 29.32058 | 303 ft | 165 kts | 244° |
| 2026-05-07 22:35 | 40.88615 | 29.30613 | 813 ft | 175 kts | 244° |
| 2026-05-07 22:36 | 40.87996 | 29.29243 | 1603 ft | 177 kts | 225° |
| 2026-05-07 22:36 | 40.86883 | 29.28397 | 2028 ft | 195 kts | 210° |
| 2026-05-07 22:36 | 40.85634 | 29.27458 | 2309 ft | 218 kts | 214° |
| 2026-05-07 22:36 | 40.84276 | 29.26339 | 2676 ft | 240 kts | 216° |
| 2026-05-07 22:37 | 40.83316 | 29.25565 | 3051 ft | 251 kts | 209° |
| 2026-05-07 22:37 | 40.81575 | 29.25048 | 3704 ft | 268 kts | 180° |
| 2026-05-07 22:37 | 40.79769 | 29.25787 | 4455 ft | 281 kts | 148° |
| 2026-05-07 22:37 | 40.78481 | 29.27739 | 5205 ft | 289 kts | 114° |
| 2026-05-07 22:38 | 40.78008 | 29.30323 | 6008 ft | 292 kts | 98° |
| 2026-05-07 22:38 | 40.77714 | 29.32977 | 6835 ft | 293 kts | 97° |
| 2026-05-07 22:38 | 40.77435 | 29.35645 | 7618 ft | 295 kts | 97° |
| 2026-05-07 22:38 | 40.77154 | 29.38331 | 8420 ft | 296 kts | 97° |
| 2026-05-07 22:39 | 40.76868 | 29.41029 | 9202 ft | 298 kts | 97° |
| 2026-05-07 22:39 | 40.76573 | 29.43750 | 9994 ft | 301 kts | 97° |
| 2026-05-07 22:39 | 40.76267 | 29.46513 | 10479 ft | 314 kts | 97° |
| 2026-05-07 22:39 | 40.75939 | 29.49462 | 10639 ft | 336 kts | 97° |
| 2026-05-07 22:40 | 40.75589 | 29.52585 | 10998 ft | 349 kts | 97° |
| 2026-05-07 22:40 | 40.75229 | 29.55777 | 11588 ft | 354 kts | 97° |
| 2026-05-07 22:40 | 40.74862 | 29.59008 | 12230 ft | 358 kts | 97° |
| 2026-05-07 22:40 | 40.74491 | 29.62267 | 12898 ft | 361 kts | 98° |
| 2026-05-07 22:41 | 40.74115 | 29.65549 | 13557 ft | 364 kts | 98° |
| 2026-05-07 22:41 | 40.73736 | 29.68865 | 14177 ft | 367 kts | 98° |
| 2026-05-07 22:41 | 40.73356 | 29.72217 | 14744 ft | 371 kts | 97° |
| 2026-05-07 22:41 | 40.72969 | 29.75592 | 15301 ft | 374 kts | 97° |
| 2026-05-07 22:42 | 40.72576 | 29.78998 | 15855 ft | 378 kts | 97° |
| 2026-05-07 22:42 | 40.72179 | 29.82443 | 16407 ft | 382 kts | 97° |
| 2026-05-07 22:42 | 40.71777 | 29.85921 | 16932 ft | 386 kts | 97° |
| 2026-05-07 22:42 | 40.71373 | 29.89394 | 17449 ft | 390 kts | 97° |
| 2026-05-07 22:43 | 40.70958 | 29.92945 | 17968 ft | 394 kts | 97° |
| 2026-05-07 22:43 | 40.70533 | 29.96577 | 18490 ft | 398 kts | 97° |
| 2026-05-07 22:43 | 40.70114 | 30.00155 | 18965 ft | 401 kts | 97° |
| 2026-05-07 22:43 | 40.69686 | 30.03807 | 19451 ft | 404 kts | 97° |
| 2026-05-07 22:44 | 40.69255 | 30.07478 | 19909 ft | 407 kts | 97° |
| 2026-05-07 22:44 | 40.68821 | 30.11178 | 20379 ft | 410 kts | 97° |
| 2026-05-07 22:44 | 40.68382 | 30.14905 | 20826 ft | 413 kts | 97° |
| 2026-05-07 22:44 | 40.67939 | 30.18661 | 21278 ft | 416 kts | 97° |
| 2026-05-07 22:45 | 40.67491 | 30.22443 | 21732 ft | 419 kts | 97° |
| 2026-05-07 22:45 | 40.67037 | 30.26245 | 22177 ft | 422 kts | 97° |
| 2026-05-07 22:45 | 40.66578 | 30.30076 | 22614 ft | 425 kts | 96° |
| 2026-05-07 22:45 | 40.66167 | 30.33935 | 23040 ft | 427 kts | 95° |
| 2026-05-07 22:46 | 40.65826 | 30.37833 | 23464 ft | 429 kts | 94° |
| 2026-05-07 22:46 | 40.65524 | 30.41751 | 23855 ft | 432 kts | 93° |
| 2026-05-07 22:46 | 40.65236 | 30.45703 | 24192 ft | 435 kts | 93° |
| 2026-05-07 22:46 | 40.64941 | 30.49688 | 24558 ft | 437 kts | 93° |
| 2026-05-07 22:47 | 40.64632 | 30.53682 | 24924 ft | 440 kts | 93° |
| 2026-05-07 22:47 | 40.64304 | 30.57697 | 25284 ft | 442 kts | 93° |
| 2026-05-07 22:47 | 40.63961 | 30.61735 | 25647 ft | 444 kts | 93° |
| 2026-05-07 22:47 | 40.63611 | 30.65786 | 26004 ft | 446 kts | 93° |
| 2026-05-07 22:48 | 40.63247 | 30.69856 | 26359 ft | 449 kts | 95° |
| 2026-05-07 22:48 | 40.62574 | 30.73897 | 26709 ft | 454 kts | 103° |
| 2026-05-07 22:48 | 40.61721 | 30.77906 | 27030 ft | 456 kts | 103° |
| 2026-05-07 22:48 | 40.60864 | 30.81936 | 27359 ft | 458 kts | 103° |
| 2026-05-07 22:49 | 40.60006 | 30.85980 | 27683 ft | 460 kts | 103° |
| 2026-05-07 22:49 | 40.59143 | 30.90048 | 28005 ft | 462 kts | 103° |
| 2026-05-07 22:49 | 40.58275 | 30.94134 | 28315 ft | 465 kts | 102° |
| 2026-05-07 22:49 | 40.57402 | 30.98241 | 28656 ft | 468 kts | 102° |
| 2026-05-07 22:50 | 40.56522 | 31.02369 | 28958 ft | 471 kts | 102° |
| 2026-05-07 22:50 | 40.55635 | 31.06524 | 29283 ft | 473 kts | 102° |
| 2026-05-07 22:50 | 40.54742 | 31.10704 | 29607 ft | 475 kts | 102° |
| 2026-05-07 22:50 | 40.53844 | 31.14896 | 29882 ft | 478 kts | 102° |
| 2026-05-07 22:51 | 40.52938 | 31.19111 | 30152 ft | 480 kts | 102° |
| 2026-05-07 22:51 | 40.52029 | 31.23337 | 30411 ft | 482 kts | 102° |
| 2026-05-07 22:51 | 40.51113 | 31.27593 | 30635 ft | 485 kts | 102° |
| 2026-05-07 22:51 | 40.50190 | 31.31866 | 30871 ft | 487 kts | 102° |
| 2026-05-07 22:52 | 40.49275 | 31.36097 | 31098 ft | 489 kts | 102° |
| 2026-05-07 22:52 | 40.48342 | 31.40394 | 31310 ft | 490 kts | 102° |
| 2026-05-07 22:52 | 40.47402 | 31.44693 | 31627 ft | 489 kts | 102° |
| 2026-05-07 22:52 | 40.46462 | 31.48976 | 31945 ft | 488 kts | 102° |
| 2026-05-07 22:53 | 40.45525 | 31.53260 | 32262 ft | 487 kts | 102° |
| 2026-05-07 22:53 | 40.44591 | 31.57538 | 32530 ft | 488 kts | 102° |
| 2026-05-07 22:53 | 40.43657 | 31.61809 | 32835 ft | 486 kts | 102° |
| 2026-05-07 22:53 | 40.42723 | 31.66071 | 33132 ft | 486 kts | 102° |
| 2026-05-07 22:54 | 40.41789 | 31.70330 | 33426 ft | 485 kts | 102° |
| 2026-05-07 22:54 | 40.40856 | 31.74586 | 33724 ft | 485 kts | 102° |
| 2026-05-07 22:54 | 40.39921 | 31.78829 | 34018 ft | 484 kts | 102° |
| 2026-05-07 22:54 | 40.38982 | 31.83070 | 34312 ft | 483 kts | 102° |
| 2026-05-07 22:55 | 40.38044 | 31.87305 | 34550 ft | 483 kts | 102° |
| 2026-05-07 22:55 | 40.37105 | 31.91538 | 34779 ft | 484 kts | 102° |
| 2026-05-07 22:55 | 40.36165 | 31.95767 | 35025 ft | 483 kts | 102° |
| 2026-05-07 22:55 | 40.35220 | 32.00002 | 35278 ft | 483 kts | 103° |
| 2026-05-07 22:56 | 40.34270 | 32.04227 | 35530 ft | 483 kts | 103° |
| 2026-05-07 22:56 | 40.33320 | 32.08449 | 35795 ft | 482 kts | 103° |
| 2026-05-07 22:56 | 40.32394 | 32.12669 | 36034 ft | 481 kts | 102° |
| 2026-05-07 22:56 | 40.31531 | 32.16897 | 36281 ft | 481 kts | 100° |
| 2026-05-07 22:57 | 40.30711 | 32.21142 | 36485 ft | 481 kts | 100° |
| 2026-05-07 22:57 | 40.29909 | 32.25391 | 36692 ft | 481 kts | 100° |
| 2026-05-07 22:57 | 40.29115 | 32.29579 | 36890 ft | 481 kts | 100° |
| 2026-05-07 22:57 | 40.28295 | 32.33821 | 37084 ft | 480 kts | 101° |
| 2026-05-07 22:58 | 40.27459 | 32.38060 | 37208 ft | 480 kts | 101° |
| 2026-05-07 22:58 | 40.25766 | 32.46492 | 37226 ft | 478 kts | 101° |
| 2026-05-07 22:59 | 40.24065 | 32.54891 | 37233 ft | 477 kts | 101° |
| 2026-05-07 22:59 | 40.22377 | 32.63301 | 37234 ft | 477 kts | 101° |
| 2026-05-07 23:00 | 40.20687 | 32.71695 | 37225 ft | 477 kts | 101° |
| 2026-05-07 23:00 | 40.18983 | 32.80093 | 37252 ft | 478 kts | 101° |
| 2026-05-07 23:01 | 40.17271 | 32.88506 | 37243 ft | 478 kts | 101° |
| 2026-05-07 23:01 | 40.15552 | 32.96913 | 37245 ft | 479 kts | 101° |
| 2026-05-07 23:02 | 40.14777 | 33.05433 | 37250 ft | 469 kts | 83° |
| 2026-05-07 23:02 | 40.15038 | 33.13935 | 37229 ft | 467 kts | 83° |
| 2026-05-07 23:03 | 40.15291 | 33.22374 | 37227 ft | 468 kts | 83° |
| 2026-05-07 23:03 | 40.15528 | 33.30876 | 37230 ft | 469 kts | 83° |
| 2026-05-07 23:04 | 40.15755 | 33.39393 | 37227 ft | 469 kts | 83° |
| 2026-05-07 23:04 | 40.15978 | 33.47919 | 37232 ft | 470 kts | 84° |
| 2026-05-07 23:05 | 40.16198 | 33.56455 | 37225 ft | 470 kts | 84° |
| 2026-05-07 23:05 | 40.16416 | 33.65082 | 37202 ft | 479 kts | 84° |
| 2026-05-07 23:06 | 40.16636 | 33.73838 | 37192 ft | 485 kts | 84° |
| 2026-05-07 23:06 | 40.16766 | 33.82665 | 37190 ft | 488 kts | 90° |
| 2026-05-07 23:07 | 40.15710 | 33.91488 | 37192 ft | 493 kts | 97° |
| 2026-05-07 23:07 | 40.14537 | 34.00302 | 37192 ft | 492 kts | 95° |
| 2026-05-07 23:08 | 40.13599 | 34.09161 | 37201 ft | 492 kts | 94° |
| 2026-05-07 23:08 | 40.12722 | 34.17981 | 37218 ft | 493 kts | 94° |
| 2026-05-07 23:09 | 40.11774 | 34.26919 | 37217 ft | 494 kts | 95° |
| 2026-05-07 23:09 | 40.10783 | 34.35796 | 37222 ft | 494 kts | 95° |
| 2026-05-07 23:10 | 40.09780 | 34.44677 | 37224 ft | 494 kts | 95° |
| 2026-05-07 23:10 | 40.08790 | 34.53491 | 37236 ft | 494 kts | 95° |
| 2026-05-07 23:11 | 40.07787 | 34.62364 | 37231 ft | 494 kts | 95° |
| 2026-05-07 23:11 | 40.06784 | 34.71238 | 37230 ft | 494 kts | 95° |
| 2026-05-07 23:12 | 40.05766 | 34.80112 | 37241 ft | 494 kts | 95° |
| 2026-05-07 23:12 | 40.04737 | 34.88983 | 37246 ft | 494 kts | 95° |
| 2026-05-07 23:13 | 40.03713 | 34.97854 | 37239 ft | 495 kts | 95° |
| 2026-05-07 23:13 | 40.02679 | 35.06727 | 37241 ft | 495 kts | 95° |
| 2026-05-07 23:14 | 40.01636 | 35.15595 | 37242 ft | 495 kts | 95° |
| 2026-05-07 23:14 | 40.00589 | 35.24469 | 37235 ft | 494 kts | 96° |
| 2026-05-07 23:15 | 39.99537 | 35.33306 | 37227 ft | 493 kts | 96° |
| 2026-05-07 23:15 | 39.98461 | 35.42133 | 37237 ft | 493 kts | 96° |
| 2026-05-07 23:16 | 39.97339 | 35.50970 | 37243 ft | 494 kts | 96° |
| 2026-05-07 23:16 | 39.96211 | 35.59750 | 37255 ft | 494 kts | 97° |
| 2026-05-07 23:17 | 39.95079 | 35.68589 | 37260 ft | 495 kts | 97° |
| 2026-05-07 23:17 | 39.93952 | 35.77433 | 37260 ft | 495 kts | 97° |
| 2026-05-07 23:18 | 39.92814 | 35.86275 | 37258 ft | 495 kts | 97° |
| 2026-05-07 23:18 | 39.91656 | 35.95118 | 37272 ft | 495 kts | 97° |
| 2026-05-07 23:19 | 39.90501 | 36.03955 | 37270 ft | 495 kts | 97° |
| 2026-05-07 23:19 | 39.89341 | 36.12794 | 37282 ft | 495 kts | 97° |
| 2026-05-07 23:20 | 39.88175 | 36.21616 | 37281 ft | 494 kts | 97° |
| 2026-05-07 23:20 | 39.86984 | 36.30440 | 37273 ft | 495 kts | 98° |
| 2026-05-07 23:21 | 39.85712 | 36.39188 | 37276 ft | 495 kts | 98° |
| 2026-05-07 23:21 | 39.84495 | 36.47998 | 37278 ft | 495 kts | 97° |
| 2026-05-07 23:22 | 39.83344 | 36.56824 | 37287 ft | 495 kts | 97° |
| 2026-05-07 23:22 | 39.82182 | 36.65648 | 37291 ft | 495 kts | 97° |
| 2026-05-07 23:23 | 39.80990 | 36.74463 | 37295 ft | 495 kts | 98° |
| 2026-05-07 23:23 | 39.79781 | 36.83276 | 37298 ft | 495 kts | 98° |
| 2026-05-07 23:24 | 39.79189 | 36.92158 | 37315 ft | 490 kts | 83° |
| 2026-05-07 23:24 | 39.79905 | 37.00948 | 37307 ft | 489 kts | 81° |
| 2026-05-07 23:25 | 39.80636 | 37.09733 | 37293 ft | 489 kts | 81° |
| 2026-05-07 23:25 | 39.81348 | 37.18529 | 37284 ft | 489 kts | 81° |
| 2026-05-07 23:26 | 39.82046 | 37.27326 | 37272 ft | 489 kts | 81° |
| 2026-05-07 23:26 | 39.82732 | 37.36067 | 37279 ft | 489 kts | 82° |
| 2026-05-07 23:27 | 39.83765 | 37.49261 | 37263 ft | 488 kts | 82° |
| 2026-05-07 23:27 | 39.84437 | 37.58046 | 37265 ft | 488 kts | 82° |
| 2026-05-07 23:28 | 39.84993 | 37.65409 | 37255 ft | 488 kts | 82° |
| 2026-05-07 23:28 | 39.85654 | 37.74197 | 37261 ft | 488 kts | 82° |
| 2026-05-07 23:29 | 39.86305 | 37.82983 | 37256 ft | 488 kts | 82° |
| 2026-05-07 23:29 | 39.86940 | 37.91710 | 37254 ft | 488 kts | 82° |
| 2026-05-07 23:30 | 39.87575 | 38.00495 | 37249 ft | 488 kts | 82° |
| 2026-05-07 23:30 | 39.88223 | 38.09288 | 37239 ft | 488 kts | 82° |
| 2026-05-07 23:31 | 39.88863 | 38.18076 | 37239 ft | 488 kts | 82° |
| 2026-05-07 23:31 | 39.89496 | 38.26870 | 37245 ft | 488 kts | 83° |
| 2026-05-07 23:32 | 39.90117 | 38.35664 | 37241 ft | 488 kts | 83° |
| 2026-05-07 23:32 | 39.90725 | 38.44469 | 37244 ft | 488 kts | 83° |
| 2026-05-07 23:33 | 39.91335 | 38.53274 | 37245 ft | 488 kts | 83° |
| 2026-05-07 23:33 | 39.91939 | 38.62082 | 37252 ft | 488 kts | 83° |
| 2026-05-07 23:34 | 39.92539 | 38.70897 | 37253 ft | 488 kts | 83° |
| 2026-05-07 23:34 | 39.93135 | 38.79706 | 37246 ft | 488 kts | 83° |
| 2026-05-07 23:35 | 39.93715 | 38.88527 | 37244 ft | 489 kts | 84° |
| 2026-05-07 23:35 | 39.94033 | 38.97319 | 37243 ft | 490 kts | 87° |
| 2026-05-07 23:36 | 39.94076 | 39.06199 | 37247 ft | 490 kts | 88° |
| 2026-05-07 23:36 | 39.94112 | 39.15080 | 37257 ft | 490 kts | 88° |
| 2026-05-07 23:37 | 39.94239 | 39.23966 | 37253 ft | 490 kts | 87° |
| 2026-05-07 23:37 | 39.94404 | 39.32845 | 37251 ft | 490 kts | 87° |
| 2026-05-07 23:38 | 39.94553 | 39.41734 | 37247 ft | 491 kts | 88° |
| 2026-05-07 23:38 | 39.94670 | 39.50627 | 37247 ft | 491 kts | 88° |
| 2026-05-07 23:39 | 39.94772 | 39.59521 | 37245 ft | 491 kts | 88° |
| 2026-05-07 23:39 | 39.94880 | 39.68426 | 37249 ft | 492 kts | 88° |
| 2026-05-07 23:40 | 39.94984 | 39.77333 | 37250 ft | 492 kts | 88° |
| 2026-05-07 23:40 | 39.95082 | 39.86243 | 37252 ft | 492 kts | 88° |
| 2026-05-07 23:41 | 39.95169 | 39.95161 | 37253 ft | 492 kts | 88° |
| 2026-05-07 23:41 | 39.95247 | 40.04092 | 37255 ft | 493 kts | 88° |
| 2026-05-07 23:42 | 39.95318 | 40.12948 | 37239 ft | 489 kts | 89° |
| 2026-05-07 23:42 | 39.95354 | 40.17322 | 37230 ft | 476 kts | 89° |
| 2026-05-07 23:42 | 39.95387 | 40.21613 | 37242 ft | 473 kts | 89° |
| 2026-05-07 23:43 | 39.95444 | 40.30177 | 37240 ft | 472 kts | 89° |
| 2026-05-07 23:43 | 39.95493 | 40.38728 | 37122 ft | 472 kts | 89° |
| 2026-05-07 23:44 | 39.95518 | 40.42998 | 36872 ft | 472 kts | 89° |
| 2026-05-07 23:44 | 39.95541 | 40.47291 | 36625 ft | 473 kts | 89° |
| 2026-05-07 23:44 | 39.95565 | 40.51575 | 36378 ft | 473 kts | 89° |
| 2026-05-07 23:44 | 39.95585 | 40.55862 | 36134 ft | 473 kts | 89° |
| 2026-05-07 23:45 | 39.95601 | 40.60147 | 35905 ft | 473 kts | 89° |
| 2026-05-07 23:45 | 39.95613 | 40.64430 | 35670 ft | 472 kts | 89° |
| 2026-05-07 23:45 | 39.95622 | 40.68709 | 35430 ft | 472 kts | 89° |
| 2026-05-07 23:45 | 39.95629 | 40.72989 | 35195 ft | 472 kts | 89° |
| 2026-05-07 23:46 | 39.95639 | 40.77266 | 34966 ft | 472 kts | 89° |
| 2026-05-07 23:46 | 39.95652 | 40.81543 | 34735 ft | 472 kts | 89° |
| 2026-05-07 23:46 | 39.95663 | 40.85827 | 34504 ft | 472 kts | 89° |
| 2026-05-07 23:46 | 39.95670 | 40.90111 | 34277 ft | 472 kts | 89° |
| 2026-05-07 23:47 | 39.95678 | 40.94380 | 34010 ft | 471 kts | 89° |
| 2026-05-07 23:47 | 39.95682 | 40.98638 | 33738 ft | 469 kts | 89° |
| 2026-05-07 23:47 | 39.95685 | 41.02825 | 33476 ft | 466 kts | 89° |
| 2026-05-07 23:47 | 39.95684 | 41.07040 | 33222 ft | 464 kts | 89° |
| 2026-05-07 23:48 | 39.95680 | 41.11226 | 32957 ft | 461 kts | 89° |
| 2026-05-07 23:48 | 39.95675 | 41.15372 | 32565 ft | 455 kts | 89° |
| 2026-05-07 23:48 | 39.95629 | 41.19475 | 32074 ft | 450 kts | 93° |
| 2026-05-07 23:48 | 39.95216 | 41.23498 | 31593 ft | 446 kts | 101° |
| 2026-05-07 23:49 | 39.94565 | 41.27436 | 31108 ft | 442 kts | 101° |
| 2026-05-07 23:49 | 39.93925 | 41.31335 | 30629 ft | 438 kts | 101° |
| 2026-05-07 23:49 | 39.93295 | 41.35201 | 30119 ft | 434 kts | 101° |
| 2026-05-07 23:49 | 39.92675 | 41.39027 | 29622 ft | 428 kts | 101° |
| 2026-05-07 23:50 | 39.92063 | 41.42797 | 29164 ft | 422 kts | 101° |
| 2026-05-07 23:50 | 39.91457 | 41.46508 | 28703 ft | 416 kts | 101° |
| 2026-05-07 23:50 | 39.90855 | 41.50171 | 28250 ft | 411 kts | 101° |
| 2026-05-07 23:50 | 39.90258 | 41.53788 | 27814 ft | 406 kts | 101° |
| 2026-05-07 23:51 | 39.89667 | 41.57362 | 27379 ft | 401 kts | 101° |
| 2026-05-07 23:51 | 39.89084 | 41.60890 | 26969 ft | 396 kts | 101° |
| 2026-05-07 23:51 | 39.88507 | 41.64376 | 26557 ft | 392 kts | 101° |
| 2026-05-07 23:51 | 39.87934 | 41.67822 | 26163 ft | 387 kts | 101° |
| 2026-05-07 23:52 | 39.87367 | 41.71224 | 25776 ft | 382 kts | 101° |
| 2026-05-07 23:52 | 39.86806 | 41.74584 | 25392 ft | 377 kts | 101° |
| 2026-05-07 23:52 | 39.86253 | 41.77900 | 25021 ft | 373 kts | 101° |
| 2026-05-07 23:52 | 39.85702 | 41.81181 | 24640 ft | 370 kts | 101° |
| 2026-05-07 23:53 | 39.85153 | 41.84441 | 24263 ft | 368 kts | 101° |
| 2026-05-07 23:53 | 39.84616 | 41.87635 | 23887 ft | 365 kts | 101° |
| 2026-05-07 23:53 | 39.84075 | 41.90849 | 23458 ft | 363 kts | 101° |
| 2026-05-07 23:53 | 39.83534 | 41.94046 | 23053 ft | 361 kts | 102° |
| 2026-05-07 23:54 | 39.82995 | 41.97222 | 22660 ft | 359 kts | 102° |
| 2026-05-07 23:54 | 39.82458 | 42.00382 | 22262 ft | 357 kts | 102° |
| 2026-05-07 23:54 | 39.81924 | 42.03520 | 21853 ft | 354 kts | 102° |
| 2026-05-07 23:54 | 39.81394 | 42.06642 | 21450 ft | 352 kts | 102° |
| 2026-05-07 23:55 | 39.80867 | 42.09740 | 21031 ft | 350 kts | 102° |
| 2026-05-07 23:55 | 39.80342 | 42.12819 | 20615 ft | 348 kts | 102° |
| 2026-05-07 23:55 | 39.79817 | 42.15880 | 20200 ft | 346 kts | 102° |
| 2026-05-07 23:55 | 39.79296 | 42.18921 | 19798 ft | 344 kts | 102° |
| 2026-05-07 23:56 | 39.78777 | 42.21940 | 19354 ft | 341 kts | 102° |
| 2026-05-07 23:56 | 39.78259 | 42.24945 | 18950 ft | 339 kts | 102° |
| 2026-05-07 23:56 | 39.77745 | 42.27923 | 18532 ft | 337 kts | 102° |
| 2026-05-07 23:56 | 39.77233 | 42.30883 | 18080 ft | 334 kts | 102° |
| 2026-05-07 23:57 | 39.76726 | 42.33817 | 17671 ft | 331 kts | 102° |
| 2026-05-07 23:57 | 39.76224 | 42.36725 | 17269 ft | 329 kts | 102° |
| 2026-05-07 23:57 | 39.75724 | 42.39619 | 16858 ft | 327 kts | 102° |
| 2026-05-07 23:57 | 39.75226 | 42.42487 | 16445 ft | 324 kts | 102° |
| 2026-05-07 23:58 | 39.74731 | 42.45336 | 16042 ft | 322 kts | 102° |
| 2026-05-07 23:58 | 39.74235 | 42.48163 | 15639 ft | 320 kts | 102° |
| 2026-05-07 23:58 | 39.73740 | 42.50970 | 15157 ft | 320 kts | 102° |
| 2026-05-07 23:58 | 39.73249 | 42.53765 | 14645 ft | 321 kts | 103° |
| 2026-05-07 23:59 | 39.72755 | 42.56587 | 14229 ft | 319 kts | 103° |
| 2026-05-07 23:59 | 39.72266 | 42.59383 | 13804 ft | 316 kts | 103° |
| 2026-05-07 23:59 | 39.71780 | 42.62147 | 13396 ft | 312 kts | 103° |
| 2026-05-07 23:59 | 39.71299 | 42.64883 | 13002 ft | 308 kts | 103° |
| 2026-05-08 00:00 | 39.70824 | 42.67582 | 12615 ft | 305 kts | 102° |
| 2026-05-08 00:00 | 39.70354 | 42.70252 | 12236 ft | 302 kts | 103° |
| 2026-05-08 00:00 | 39.69886 | 42.72905 | 11826 ft | 300 kts | 103° |
| 2026-05-08 00:00 | 39.69421 | 42.75542 | 11409 ft | 299 kts | 102° |
| 2026-05-08 00:01 | 39.69052 | 42.78186 | 10990 ft | 297 kts | 92° |
| 2026-05-08 00:01 | 39.69256 | 42.80827 | 10586 ft | 294 kts | 74° |
| 2026-05-08 00:01 | 39.70073 | 42.83226 | 10235 ft | 289 kts | 55° |
| 2026-05-08 00:01 | 39.71360 | 42.85130 | 10122 ft | 275 kts | 38° |
| 2026-05-08 00:02 | 39.72899 | 42.86506 | 9978 ft | 264 kts | 33° |
| 2026-05-08 00:02 | 39.74376 | 42.87937 | 9536 ft | 266 kts | 40° |
| 2026-05-08 00:02 | 39.75711 | 42.89598 | 9139 ft | 266 kts | 46° |
| 2026-05-08 00:02 | 39.76874 | 42.91457 | 8764 ft | 266 kts | 54° |
| 2026-05-08 00:03 | 39.77767 | 42.93560 | 8237 ft | 271 kts | 75° |
| 2026-05-08 00:03 | 39.77758 | 42.95957 | 7774 ft | 271 kts | 107° |
| 2026-05-08 00:03 | 39.76799 | 42.98019 | 7377 ft | 266 kts | 138° |
| 2026-05-08 00:03 | 39.75255 | 42.99141 | 7062 ft | 246 kts | 164° |
| 2026-05-08 00:04 | 39.73677 | 42.99700 | 6735 ft | 226 kts | 165° |
| 2026-05-08 00:04 | 39.72247 | 43.00205 | 6555 ft | 199 kts | 165° |
| 2026-05-08 00:04 | 39.70991 | 43.00652 | 6273 ft | 176 kts | 165° |
| 2026-05-08 00:04 | 39.69864 | 43.01058 | 5966 ft | 161 kts | 164° |
| 2026-05-08 00:05 | 39.68818 | 43.01436 | 5805 ft | 153 kts | 165° |
| 2026-05-08 00:05 | 39.67804 | 43.01783 | 5610 ft | 149 kts | 165° |
| 2026-05-08 00:05 | 39.66808 | 43.02137 | 5473 ft | 144 kts | 165° |
| 2026-05-08 00:05 | 39.65990 | 43.02425 | 5482 ft | 78 kts | 163° |
| 2026-05-08 00:06 | 39.65672 | 43.02543 | 5488 ft | 26 kts | 163° |
| 2026-05-08 00:06 | 39.65551 | 43.02545 | 5490 ft | 10 kts | 233° |
| 2026-05-08 00:06 | 39.65535 | 43.02442 | 5491 ft | 15 kts | 258° |
| 2026-05-08 00:06 | 39.65505 | 43.02290 | 5492 ft | 21 kts | 256° |
| 2026-05-08 00:07 | 39.65483 | 43.02187 | 5492 ft | 0 kts | 255° |
| 2026-05-08 00:07 | 39.65483 | 43.02186 | 5492 ft | 0 kts | 255° |